Alden, NY

1:23 AM EDT on April 21, 2015 (GMT -0400)
West Alden | | Change Station
CLOSE
Current Station
Personal Weather Station
Location: Alden, NY
Elevation: 840 ft
Nearby Weather Stations

Elev 840 ft 42.89 °N, 78.53 °W | Updated 3 minutes ago

Overcast
Overcast
47.6 °F
Feels Like 48 °F
N
3.0
Wind Variable Wind from SW
Gusts 8.5 mph

Today
High -- | Low -- °F
--% Chance of Precip.
Yesterday
High -- | Low -- °F
Precip. -- in
6:23 AM 8:03 PM
Waxing Crescent, 8% visible
Pressure 29.60 in
Visibility 10.0 miles
Clouds Mostly Cloudy 3200 ft
Mostly Cloudy 10000 ft
Windchill 48 °F
Dew Point 30 °F
Humidity 51%
Rainfall 0.00 in
Snow Depth Not available.
UV 0 out of 12
Pollen 4.30 out of 12
Air Quality Not available.
Flu Activity Widespread
METAR KBUF 210454Z 23014KT 10SM BKN032 BKN100 07/04 A2959 RMK AO2 SLP021 T00720039 402110067

More Conditions Fewer Conditions

Pressure 29.60 in
Visibility 10.0 miles
Clouds Mostly Cloudy 3200 ft
Mostly Cloudy 10000 ft
Windchill 48 °F
Dew Point 30 °F
Humidity 51%
Rainfall 0.00 in
Snow Depth Not available.
UV 0 out of 12
Pollen 4.30 out of 12
Air Quality Not available.
Flu Activity Widespread
METAR KBUF 210454Z 23014KT 10SM BKN032 BKN100 07/04 A2959 RMK AO2 SLP021 T00720039 402110067

More Conditions Fewer Conditions

10-Day Weather Forecast

Almanac

Astronomy

Apr. 21, 2015 Rise Set
Actual Time
Civil Twilight
Nautical Twilight
Astronomical Twilight
Moon
Length of Visible Light
Length of Day
Tomorrow will be .
, % of the Moon is Illuminated

Today's Extremes

State Highs State Lows

Community

WunderPhotos

Upload Photos

1,815,316 photos uploaded!

WunderBlogs® & News

Nearby

Air Quality

  Air Quality AQ Index Pollutant
Not available.

Snow Depth

Station Depth Elevation

Earthquake Activity

City Distance Mag. Time & Date
Minimum magnitude displayed is 2.5.

Coastal Water Temperatures

Place Temperature

Stations

Nearby Weather Stations

Station Location Temp. Windchill Dew Point Humidity Wind Precip. Elev Updated Type